KGYYKSBM

Guest
Details From KGYY - Gary Chicago Intl
To KSBM - Sheboygan Co Mem
Flight Number -
Tags generated
Created
Modified
Stats Distance 131 nm / 242 km
Max Altitude 14,300 ft / 4,359 m
Waypoints 3
Social Downloads 0
Likes 0
Share VATSIM

Download

Looking for another format? Having issues loading an existing format? Contact us
Advertisement - Login to hide

Notes

Basic altitude profile: - Ascent Rate: 500ft/min - Ascent Speed: 90kts - Cruise Altitude: 6000ft - Cruise Speed: 120kts - Descent Rate: 500ft/min - Descent Speed: 90kts Options: - Use NATs: yes - Use PACOTS: yes - Use low airways: yes - Use high airways: no

Route

KGYY TALOR KSBM

ID Type Via Altitude Latitude Longitude Leg Dist Tot Dist Heading (true) Name
O KGYY APT - 0 ft / 0 m 41.61642˚ -87.41357˚ - 0 nm - Gary Chicago Intl
TALOR FIX - 14,300 ft / 4,359 m 42.59061˚ -87.62261˚ 59 nm 59 nm 351° / 351° -
O KSBM APT - 0 ft / 0 m 43.76959˚ -87.85180˚ 71 nm 130 nm 352° / 352° Sheboygan Co Mem

Altitude Profile

Advertisement - Login to hide

KGYY

Details ICAO KGYY (GYY)
Name Gary Chicago Intl
Region United States
Timezone America/Chicago (UTC-5.0)
Stats Elevation 592 ft / 180 m (AMSL)
Location 41.616422° -87.413573°
Runways 2
Magnetic Variation 4.089° W

METAR

KGYY 261745Z 03006KT 10SM FEW200 30/13 A2980

Decode

TAF

TAF KGYY 261726Z 2618/2718 26006KT P6SM SCT060 SCT250 FM262000 07006KT P6SM FEW060 SCT250 FM270900 21005KT P6SM FEW250

Decode

Departure Runways

ID Width Length Bearing (true) Bearing (mag) Surface Threshold Offset Overrun Length
02 100 ft / 30 m 3,607 ft / 1,099 m 21.12° 25.21° Asphalt 0 ft / 0 m 0 ft / 0 m
12 150 ft / 46 m 6,994 ft / 2,132 m 124.24° 128.33° Asphalt 713 ft / 217 m 0 ft / 0 m
20 100 ft / 30 m 3,607 ft / 1,099 m 201.12° 205.21° Asphalt 0 ft / 0 m 0 ft / 0 m
30 150 ft / 46 m 6,994 ft / 2,132 m 304.26° 308.35° Asphalt 0 ft / 0 m 215 ft / 66 m

KSBM

Details ICAO KSBM
Name Sheboygan Co Mem
Region United States
Timezone America/Chicago (UTC-5.0)
Stats Elevation 754 ft / 230 m (AMSL)
Location 43.769586° -87.851797°
Runways 2
Magnetic Variation 4.095° W

METAR

KSBM 261753Z AUTO 29005KT 10SM CLR 29/16 A2974 RMK AO2 SLP067 T02940161 10294 20211 58003 TSNO

Decode

TAF

Not found

Destination Runways

ID Width Length Bearing (true) Bearing (mag) Surface Threshold Offset Overrun Length
03 98 ft / 30 m 6,801 ft / 2,073 m 35.06° 39.16° Concrete 0 ft / 0 m 0 ft / 0 m
13 75 ft / 23 m 4,994 ft / 1,522 m 129.48° 133.58° Asphalt 0 ft / 0 m 0 ft / 0 m
21 98 ft / 30 m 6,801 ft / 2,073 m 215.07° 219.17° Concrete 0 ft / 0 m 0 ft / 0 m
31 75 ft / 23 m 4,994 ft / 1,522 m 309.49° 313.59° Asphalt 0 ft / 0 m 0 ft / 0 m

Approach Navaids

Runway Type Ident Frequency Range Bearing (true) Bearing (mag) Slope Elevation
21 Localiser IHEV 110.70 MHz 18 nm / 33 km 215.03° 219.12° - 741 ft / 226 m (AMSL)
21 Glidescope IHEV 110.70 MHz 10 nm / 19 km 215.02° 219.11° 3.00° 740 ft / 226 m (AMSL)